Time;durP1;ratioP1;P1;durP2;ratioP2;P2;SDS_P1;SDS_P2;PMS_P1;PMS_P2;Temp;Humidity;BMP_temperature;BMP_pressure;BME280_temperature;BME280_humidity;BME280_pressure;Samples;Min_cycle;Max_cycle;Signal;HPM_P1;HPM_P2
2024/01/18 00:01:57;;;;;;;;;;;3.60;99.90;;;2.33;100.00;95201.94;5040358;28;1534;-72
2024/01/18 00:04:24;;;;;;;;;;;3.50;99.90;;;2.13;100.00;95200.34;5042082;28;1993;-73
2024/01/18 00:06:51;;;;;;;;;;;3.40;99.90;;;2.07;100.00;95208.28;5037565;28;1573;-72
2024/01/18 00:09:18;;;;;;;;;;;3.30;99.90;;;2.07;100.00;95206.56;5039173;28;1685;-72
2024/01/18 00:11:46;;;;;;;;;;;3.20;99.90;;;2.00;100.00;95212.03;5020306;28;1594;-72
2024/01/18 00:14:14;;;;;;;;;;;3.20;99.90;;;2.14;100.00;95209.66;5040341;28;1808;-72
2024/01/18 00:16:41;;;;;;;;;;;3.10;99.90;;;2.04;100.00;95211.00;5055898;28;1599;-72
2024/01/18 00:19:10;;;;;;;;;;;3.10;99.90;;;2.08;100.00;95212.53;5025910;28;1495;-72
2024/01/18 00:21:37;;;;;;;;;;;3.10;99.90;;;1.99;100.00;95223.19;5038228;28;1693;-73
2024/01/18 00:24:04;;;;;;;;;;;3.10;99.90;;;2.00;100.00;95217.16;5040274;28;1917;-71
2024/01/18 00:26:31;;;;;;;;;;;3.10;99.90;;;1.88;100.00;95216.00;5034811;28;1716;-72
2024/01/18 00:29:00;;;;;;;;;;;3.00;99.90;;;1.79;100.00;95213.88;5040797;28;1686;-71
2024/01/18 00:31:26;;;;;;;;;;;2.90;99.90;;;1.59;100.00;95220.69;5037614;28;1701;-72
2024/01/18 00:33:57;;;;;;;;;;;2.90;99.90;;;1.65;100.00;95217.06;5037216;28;1522;-72
2024/01/18 00:36:25;;;;;;;;;;;2.80;99.90;;;1.46;100.00;95227.28;5040334;28;1816;-72
2024/01/18 00:38:52;;;;;;;;;;;2.70;99.90;;;1.18;100.00;95225.91;5041621;28;1452;-73
2024/01/18 00:41:20;;;;;;;;;;;2.60;99.90;;;1.28;100.00;95225.50;5035894;28;1497;-71
2024/01/18 00:43:48;;;;;;;;;;;2.40;99.90;;;1.27;100.00;95234.09;5039698;28;1907;-72
2024/01/18 00:46:19;;;;;;;;;;;2.30;99.90;;;1.20;100.00;95229.25;5034156;28;1486;-72
2024/01/18 00:48:46;;;;;;;;;;;2.30;99.90;;;1.18;100.00;95238.69;5035111;28;1458;-71
2024/01/18 00:51:13;;;;;;;;;;;2.30;99.90;;;1.22;100.00;95236.84;5035363;28;1716;-72
2024/01/18 00:53:41;;;;;;;;;;;2.30;99.90;;;1.06;100.00;95238.41;5038991;28;1665;-73
2024/01/18 00:56:09;;;;;;;;;;;2.20;99.90;;;1.01;100.00;95236.06;5037210;28;1656;-72
2024/01/18 00:58:38;;;;;;;;;;;2.20;99.90;;;1.04;100.00;95230.81;5038775;28;1425;-73
2024/01/18 01:01:04;;;;;;;;;;;2.20;99.90;;;0.88;100.00;95240.84;5040212;28;1642;-73
2024/01/18 01:03:31;;;;;;;;;;;2.10;99.90;;;0.91;100.00;95238.13;5039105;28;1906;-72
2024/01/18 01:05:58;;;;;;;;;;;2.10;99.90;;;0.82;100.00;95239.38;5035263;28;1574;-72
2024/01/18 01:08:26;;;;;;;;;;;;;;;0.65;100.00;95239.25;5040543;28;1447;-72
2024/01/18 01:10:53;;;;;;;;;;;1.90;99.90;;;0.64;100.00;95240.16;5051618;28;1501;-73
2024/01/18 01:13:20;;;;;;;;;;;1.90;99.90;;;0.68;100.00;95249.31;5021067;28;1753;-73
2024/01/18 01:15:48;;;;;;;;;;;1.80;99.90;;;0.69;100.00;95256.09;5037553;28;1470;-72
2024/01/18 01:18:15;;;;;;;;;;;1.80;99.90;;;0.64;100.00;95255.47;5052950;28;1473;-72
2024/01/18 01:20:42;;;;;;;;;;;1.80;99.90;;;0.70;100.00;95259.47;5051341;28;1470;-71
2024/01/18 01:23:09;;;;;;;;;;;;;;;0.75;100.00;95255.84;5037813;28;1495;-72
2024/01/18 01:25:36;;;;;;;;;;;1.80;99.90;;;0.72;100.00;95245.75;5037691;28;2340;-72
2024/01/18 01:28:04;;;;;;;;;;;1.80;99.90;;;0.73;100.00;95254.22;5028065;28;1641;-72
2024/01/18 01:30:31;;;;;;;;;;;1.80;99.90;;;0.74;100.00;95251.63;5034179;28;1569;-72
2024/01/18 01:32:58;;;;;;;;;;;1.80;99.90;;;0.84;100.00;95264.84;5033497;28;1683;-72
2024/01/18 01:35:25;;;;;;;;;;;1.80;99.90;;;0.78;100.00;95252.34;5037858;28;1422;-72
2024/01/18 01:37:52;;;;;;;;;;;1.80;99.90;;;0.76;100.00;95249.84;5025952;28;1706;-72
2024/01/18 01:40:19;;;;;;;;;;;1.80;99.90;;;0.81;100.00;95247.91;5026988;28;1428;-70
2024/01/18 01:42:46;;;;;;;;;;;1.80;99.90;;;0.91;100.00;95239.88;5044064;28;1412;-72
2024/01/18 01:45:13;;;;;;;;;;;1.90;99.90;;;0.80;100.00;95251.38;5042407;28;1902;-72
2024/01/18 01:47:40;;;;;;;;;;;1.90;99.90;;;0.73;100.00;95257.63;5043371;28;1427;-71
2024/01/18 01:50:08;;;;;;;;;;;1.80;99.90;;;0.76;100.00;95265.16;5012600;28;1711;-72
2024/01/18 01:52:36;;;;;;;;;;;1.80;99.90;;;0.65;100.00;95277.53;5058243;28;1314;-73
2024/01/18 01:55:03;;;;;;;;;;;1.80;99.90;;;0.54;100.00;95280.50;5029579;28;1276;-72
2024/01/18 01:57:31;;;;;;;;;;;1.60;99.90;;;0.50;100.00;95279.00;5030798;28;1337;-71
2024/01/18 01:59:58;;;;;;;;;;;1.60;99.90;;;0.44;100.00;95281.78;5031910;28;1393;-73
2024/01/18 02:02:25;;;;;;;;;;;1.60;99.90;;;0.34;100.00;95278.78;5028967;28;1508;-72
2024/01/18 02:04:53;;;;;;;;;;;1.40;99.90;;;0.40;100.00;95267.47;5044620;28;1910;-72
2024/01/18 02:07:21;;;;;;;;;;;1.40;99.90;;;0.48;100.00;95282.47;5039358;28;1586;-72
2024/01/18 02:09:48;;;;;;;;;;;1.50;99.90;;;0.40;100.00;95275.94;5041659;28;1573;-73
2024/01/18 02:12:15;;;;;;;;;;;1.50;99.90;;;0.46;100.00;95281.69;5057352;28;1230;-73
2024/01/18 02:14:42;;;;;;;;;;;1.50;99.90;;;0.35;100.00;95279.59;5032878;28;1500;-73
2024/01/18 02:17:09;;;;;;;;;;;1.50;99.90;;;0.44;100.00;95284.34;5042938;28;1329;-72
2024/01/18 02:19:36;;;;;;;;;;;1.50;99.90;;;0.39;100.00;95276.03;5044376;28;1978;-71
2024/01/18 02:22:05;;;;;;;;;;;1.50;99.90;;;0.30;100.00;95284.88;5041606;28;1461;-72
2024/01/18 02:24:37;;;;;;;;;;;1.40;99.90;;;0.26;100.00;95277.41;5044194;28;1993;-72
2024/01/18 02:27:04;;;;;;;;;;;1.40;99.90;;;0.36;100.00;95286.34;5044337;28;1464;-72
2024/01/18 02:29:32;;;;;;;;;;;1.40;99.90;;;0.17;100.00;95281.97;5041824;28;1294;-72
2024/01/18 02:31:58;;;;;;;;;;;1.30;99.90;;;0.16;100.00;95274.34;5044895;28;1250;-72
2024/01/18 02:34:25;;;;;;;;;;;1.30;99.90;;;0.17;100.00;95278.59;5030043;28;1302;-73
2024/01/18 02:36:52;;;;;;;;;;;1.30;99.90;;;0.04;100.00;95269.75;5026533;28;1330;-72
2024/01/18 02:39:19;;;;;;;;;;;1.20;99.90;;;0.17;100.00;95265.84;5027262;28;1267;-72
2024/01/18 02:41:46;;;;;;;;;;;1.20;99.90;;;0.08;100.00;95266.19;5039283;28;1325;-72
2024/01/18 02:44:14;;;;;;;;;;;1.20;99.90;;;0.07;100.00;95262.81;5044390;28;1974;-72
2024/01/18 02:46:41;;;;;;;;;;;1.20;99.90;;;0.09;100.00;95252.53;5038439;28;1391;-72
2024/01/18 02:49:08;;;;;;;;;;;1.20;99.90;;;0.11;100.00;95255.84;5041878;28;1282;-72
2024/01/18 02:51:35;;;;;;;;;;;1.20;99.90;;;0.09;100.00;95263.59;5056228;28;1433;-71
2024/01/18 02:54:02;;;;;;;;;;;1.20;99.90;;;0.17;100.00;95264.09;5044215;28;1313;-71
2024/01/18 02:56:29;;;;;;;;;;;1.20;99.90;;;0.06;100.00;95253.47;5054752;28;1341;-72
2024/01/18 02:58:55;;;;;;;;;;;1.20;99.90;;;0.03;100.00;95245.13;5029743;28;1271;-72
2024/01/18 03:01:22;;;;;;;;;;;1.10;99.90;;;0.04;100.00;95257.81;5039849;28;1235;-72
2024/01/18 03:03:49;;;;;;;;;;;1.10;99.90;;;-0.01;100.00;95240.13;5029518;28;1339;-72
2024/01/18 03:06:16;;;;;;;;;;;1.10;99.90;;;0.02;100.00;95246.00;5040385;28;1937;-72
2024/01/18 03:08:43;;;;;;;;;;;1.10;99.90;;;-0.01;100.00;95245.22;5042072;28;1284;-71
2024/01/18 03:11:10;;;;;;;;;;;1.00;99.90;;;0.02;100.00;95244.28;5023583;28;1393;-72
2024/01/18 03:13:36;;;;;;;;;;;1.00;99.90;;;0.06;100.00;95242.47;5057009;28;1426;-72
2024/01/18 03:16:03;;;;;;;;;;;1.00;99.90;;;0.03;100.00;95250.25;5044953;28;1409;-72
2024/01/18 03:18:31;;;;;;;;;;;1.10;99.90;;;-0.04;100.00;95242.81;5039878;28;1330;-72
2024/01/18 03:20:58;;;;;;;;;;;1.10;99.90;;;0.03;100.00;95252.78;5028138;28;1309;-71
2024/01/18 03:23:25;;;;;;;;;;;1.10;99.90;;;0.02;100.00;95262.13;5041509;28;1380;-71
2024/01/18 03:25:52;;;;;;;;;;;1.10;99.90;;;-0.05;100.00;95270.91;5056121;28;1914;-72
2024/01/18 03:28:19;;;;;;;;;;;1.10;99.90;;;-0.08;100.00;95256.56;5039171;28;1438;-72
2024/01/18 03:30:46;;;;;;;;;;;1.10;99.90;;;-0.21;100.00;95240.06;5040055;28;1306;-72
2024/01/18 03:33:13;;;;;;;;;;;1.00;99.90;;;-0.20;100.00;95236.63;5006234;28;1723;-72
2024/01/18 03:35:41;;;;;;;;;;;1.00;99.90;;;-0.15;100.00;95242.38;5041764;28;1245;-72
2024/01/18 03:38:08;;;;;;;;;;;0.90;99.90;;;-0.20;100.00;95244.28;5056556;28;1280;-73
2024/01/18 03:40:37;;;;;;;;;;;1.00;99.90;;;-0.12;100.00;95255.00;5041568;28;1307;-72
2024/01/18 03:43:04;;;;;;;;;;;0.90;99.90;;;-0.12;100.00;95269.50;5037917;28;1258;-72
2024/01/18 03:45:31;;;;;;;;;;;0.90;99.90;;;-0.17;100.00;95281.59;5039153;28;1906;-71
2024/01/18 03:47:58;;;;;;;;;;;0.80;99.90;;;-0.15;100.00;95273.00;5042141;28;1305;-73
2024/01/18 03:50:25;;;;;;;;;;;0.90;99.90;;;-0.22;100.00;95261.34;5027997;28;1466;-72
2024/01/18 03:52:52;;;;;;;;;;;0.90;99.90;;;-0.29;100.00;95263.31;5029694;28;1323;-72
2024/01/18 03:55:19;;;;;;;;;;;0.90;99.90;;;-0.25;100.00;95259.75;5026292;28;1347;-73
2024/01/18 03:57:46;;;;;;;;;;;0.80;99.90;;;-0.22;100.00;95246.88;5039371;28;1110;-71
2024/01/18 04:00:13;;;;;;;;;;;0.90;99.90;;;-0.35;100.00;95245.69;5042111;28;1272;-72
2024/01/18 04:02:40;;;;;;;;;;;0.90;99.90;;;-0.22;100.00;95261.34;5044863;28;1618;-73
2024/01/18 04:05:07;;;;;;;;;;;0.80;99.90;;;-0.25;100.00;95272.50;5043418;28;1997;-72
2024/01/18 04:07:35;;;;;;;;;;;0.80;99.90;;;-0.38;100.00;95275.56;5038870;28;1270;-72
2024/01/18 04:10:04;;;;;;;;;;;0.70;99.90;;;-0.35;100.00;95276.25;5040839;28;1328;-72
2024/01/18 04:12:31;;;;;;;;;;;0.80;99.90;;;-0.35;100.00;95276.25;5040397;28;1515;-73
2024/01/18 04:14:58;;;;;;;;;;;0.80;99.90;;;-0.31;100.00;95288.03;5041414;28;1913;-72
2024/01/18 04:17:25;;;;;;;;;;;0.80;99.90;;;-0.27;100.00;95298.94;5042053;28;1232;-72
2024/01/18 04:19:51;;;;;;;;;;;0.80;99.90;;;-0.28;100.00;95297.25;5045231;28;1536;-72
2024/01/18 04:22:18;;;;;;;;;;;0.80;99.90;;;-0.29;100.00;95293.06;5038919;28;1591;-73
2024/01/18 04:24:45;;;;;;;;;;;0.80;99.90;;;-0.27;100.00;95317.63;5028707;28;1977;-72
2024/01/18 04:27:12;;;;;;;;;;;0.80;99.90;;;-0.36;100.00;95307.75;5043329;28;1480;-72
2024/01/18 04:29:39;;;;;;;;;;;0.80;99.90;;;-0.39;100.00;95301.91;5042406;28;1274;-72
2024/01/18 04:32:06;;;;;;;;;;;0.80;99.90;;;-0.35;100.00;95304.31;5027689;28;1541;-72
2024/01/18 04:34:33;;;;;;;;;;;0.70;99.90;;;-0.33;100.00;95306.81;5041772;28;1472;-72
2024/01/18 04:37:00;;;;;;;;;;;0.80;99.90;;;-0.28;100.00;95305.75;5027842;28;1436;-71
2024/01/18 04:39:27;;;;;;;;;;;0.80;99.90;;;-0.32;100.00;95304.22;5041093;28;1293;-72
2024/01/18 04:41:54;;;;;;;;;;;0.80;99.90;;;-0.27;100.00;95304.03;5039547;28;1355;-73
2024/01/18 04:44:20;;;;;;;;;;;0.80;99.90;;;-0.23;100.00;95306.44;5040364;28;1374;-72
2024/01/18 04:46:47;;;;;;;;;;;0.70;99.90;;;-0.30;100.00;95299.03;5039232;28;1906;-72
2024/01/18 04:49:15;;;;;;;;;;;0.80;99.90;;;-0.34;100.00;95297.47;5041260;28;1305;-72
2024/01/18 04:51:42;;;;;;;;;;;0.70;99.90;;;-0.44;100.00;95285.06;5043159;28;1045;-72
2024/01/18 04:54:09;;;;;;;;;;;0.70;99.90;;;-0.40;100.00;95305.38;5040077;28;1320;-73
2024/01/18 04:56:37;;;;;;;;;;;0.70;99.90;;;-0.53;100.00;95295.59;5040166;28;1996;-72
2024/01/18 04:59:05;;;;;;;;;;;0.70;99.90;;;-0.55;100.00;95294.81;5057089;28;1503;-72
2024/01/18 05:01:37;;;;;;;;;;;0.70;99.90;;;-0.50;100.00;95295.50;5036897;28;1423;-72
2024/01/18 05:04:04;;;;;;;;;;;0.70;99.90;;;-0.46;100.00;95296.22;5024586;28;1431;-72
2024/01/18 05:06:31;;;;;;;;;;;0.60;99.90;;;-0.51;100.00;95282.81;5040010;28;1973;-72
2024/01/18 05:08:58;;;;;;;;;;;0.60;99.90;;;-0.43;100.00;95302.03;5026711;28;1179;-72
2024/01/18 05:11:25;;;;;;;;;;;0.60;99.90;;;-0.43;100.00;95299.50;5040509;28;1321;-72
2024/01/18 05:13:53;;;;;;;;;;;0.60;99.90;;;-0.49;100.00;95302.25;5030703;28;1382;-74
2024/01/18 05:16:19;;;;;;;;;;;0.60;99.90;;;-0.51;100.00;95300.66;5030951;28;1104;-72
2024/01/18 05:18:46;;;;;;;;;;;0.70;99.90;;;-0.47;100.00;95303.03;5045448;28;1357;-72
2024/01/18 05:21:13;;;;;;;;;;;0.70;99.90;;;-0.46;100.00;95301.31;5042630;28;1359;-72
2024/01/18 05:23:40;;;;;;;;;;;0.50;99.90;;;-0.55;100.00;95292.25;5031720;28;1304;-73
2024/01/18 05:26:08;;;;;;;;;;;0.50;99.90;;;-0.57;100.00;95286.44;5046105;28;1969;-72
2024/01/18 05:28:35;;;;;;;;;;;0.50;99.90;;;-0.47;100.00;95300.47;5039522;28;1242;-72
2024/01/18 05:31:02;;;;;;;;;;;0.50;99.90;;;-0.53;100.00;95293.06;5043497;28;1686;-72
2024/01/18 05:33:29;;;;;;;;;;;0.60;99.90;;;-0.67;100.00;95292.72;5043274;28;1673;-72
2024/01/18 05:35:57;;;;;;;;;;;0.50;99.90;;;-0.58;100.00;95301.75;5041501;28;1097;-73
2024/01/18 05:38:23;;;;;;;;;;;0.50;99.90;;;-0.64;100.00;95302.78;5041982;28;1336;-73
2024/01/18 05:40:50;;;;;;;;;;;0.50;99.90;;;-0.69;100.00;95290.22;5041033;28;1317;-73
2024/01/18 05:43:17;;;;;;;;;;;0.50;99.90;;;-0.66;100.00;95302.03;5042754;28;1321;-71
2024/01/18 05:45:44;;;;;;;;;;;0.50;99.90;;;-0.75;100.00;95297.22;5046617;28;1902;-72
2024/01/18 05:48:11;;;;;;;;;;;0.50;99.90;;;-0.73;100.00;95295.47;5031088;28;1139;-73
2024/01/18 05:50:39;;;;;;;;;;;0.50;99.90;;;-0.67;100.00;95301.19;5030665;28;1480;-72
2024/01/18 05:53:05;;;;;;;;;;;0.50;99.90;;;-0.76;100.00;95296.41;5044261;28;1302;-72
2024/01/18 05:55:32;;;;;;;;;;;0.40;99.90;;;-0.83;100.00;95300.06;5041924;28;1517;-71
2024/01/18 05:58:00;;;;;;;;;;;0.50;99.90;;;-0.73;100.00;95306.50;5043298;28;1548;-72
2024/01/18 06:00:27;;;;;;;;;;;0.40;99.90;;;-0.77;100.00;95304.94;5030775;28;1321;-72
2024/01/18 06:02:56;;;;;;;;;;;0.40;99.90;;;-0.72;100.00;95320.91;5045267;28;1720;-72
2024/01/18 06:05:23;;;;;;;;;;;0.40;99.90;;;-0.86;100.00;95287.44;5039594;28;1972;-71
2024/01/18 06:07:50;;;;;;;;;;;0.40;99.90;;;-0.81;100.00;95303.38;5043161;28;1723;-72
2024/01/18 06:10:17;;;;;;;;;;;0.40;99.90;;;-0.75;100.00;95322.72;5040840;28;1086;-72
2024/01/18 06:12:44;;;;;;;;;;;0.30;99.90;;;-0.82;100.00;95326.34;5038033;28;1097;-72
2024/01/18 06:15:11;;;;;;;;;;;0.30;99.90;;;-0.83;100.00;95317.06;5025138;28;1285;-71
2024/01/18 06:17:38;;;;;;;;;;;0.30;99.90;;;-0.79;100.00;95316.91;5040938;28;1425;-72
2024/01/18 06:20:06;;;;;;;;;;;0.40;99.90;;;-0.91;100.00;95313.06;5029327;28;1229;-71
2024/01/18 06:22:33;;;;;;;;;;;0.40;99.90;;;-0.82;100.00;95317.03;5026744;28;1090;-72
2024/01/18 06:24:59;;;;;;;;;;;0.30;99.90;;;-0.78;100.00;95327.91;5040198;28;1898;-72
2024/01/18 06:27:26;;;;;;;;;;;0.30;99.90;;;-0.84;100.00;95328.97;5037639;28;1140;-72
2024/01/18 06:29:54;;;;;;;;;;;0.30;99.90;;;-0.84;100.00;95321.31;5043609;28;1081;-72
2024/01/18 06:32:21;;;;;;;;;;;0.30;99.90;;;-0.91;100.00;95319.88;5040205;28;1419;-71
2024/01/18 06:34:48;;;;;;;;;;;0.30;99.90;;;-0.92;100.00;95331.75;5040684;28;1340;-72
2024/01/18 06:37:15;;;;;;;;;;;0.20;99.90;;;-0.92;100.00;95328.38;5042777;28;1105;-73
2024/01/18 06:39:42;;;;;;;;;;;0.20;99.90;;;-0.91;100.00;95335.16;5024257;28;1189;-72
2024/01/18 06:42:09;;;;;;;;;;;0.30;99.90;;;-0.94;100.00;95327.59;5036482;28;1133;-72
2024/01/18 06:44:36;;;;;;;;;;;0.30;99.90;;;-1.00;100.00;95331.19;5041581;28;1323;-72
2024/01/18 06:47:03;;;;;;;;;;;0.30;99.90;;;-0.98;100.00;95343.84;5041811;28;1971;-73
2024/01/18 06:49:30;;;;;;;;;;;0.20;99.90;;;-1.09;100.00;95345.06;5038175;28;1237;-73
2024/01/18 06:51:57;;;;;;;;;;;0.20;99.90;;;-0.98;100.00;95359.13;5028014;28;1252;-72
2024/01/18 06:54:24;;;;;;;;;;;0.10;99.90;;;-1.06;100.00;95356.84;5028957;28;1426;-72
2024/01/18 06:56:52;;;;;;;;;;;0.10;99.90;;;-1.06;100.00;95357.69;5041231;28;1173;-72
2024/01/18 06:59:18;;;;;;;;;;;0.20;99.90;;;-1.03;100.00;95364.38;5041298;28;1447;-72
2024/01/18 07:01:46;;;;;;;;;;;0.10;99.90;;;-1.18;100.00;95375.91;5041657;28;1410;-72
2024/01/18 07:04:13;;;;;;;;;;;0.00;99.90;;;-1.16;100.00;95391.13;5041588;28;1343;-71
2024/01/18 07:06:40;;;;;;;;;;;0.00;99.90;;;-1.19;100.00;95397.13;5040001;28;1902;-72
2024/01/18 07:09:07;;;;;;;;;;;0.00;99.90;;;-1.18;100.00;95396.28;5054413;28;1136;-71
2024/01/18 07:11:33;;;;;;;;;;;0.00;99.90;;;-1.39;100.00;95384.19;5055452;28;1395;-73
2024/01/18 07:14:00;;;;;;;;;;;0.00;99.90;;;-1.42;100.00;95374.13;5040238;28;1347;-72
2024/01/18 07:16:27;;;;;;;;;;;0.00;99.90;;;-1.51;100.00;95386.22;5041474;28;1134;-72
2024/01/18 07:18:54;;;;;;;;;;;-0.10;99.90;;;-1.50;100.00;95397.28;5042189;28;1173;-71
2024/01/18 07:21:21;;;;;;;;;;;-0.20;99.90;;;-1.59;100.00;95403.47;5054490;28;1208;-71
2024/01/18 07:23:48;;;;;;;;;;;-0.20;99.90;;;-1.54;100.00;95410.94;5021164;28;1342;-72
2024/01/18 07:26:15;;;;;;;;;;;-0.40;99.90;;;-1.65;100.00;95408.72;5056707;28;1902;-72
2024/01/18 07:28:42;;;;;;;;;;;-0.40;99.90;;;-1.72;100.00;95407.25;5041861;28;1285;-73
2024/01/18 07:31:09;;;;;;;;;;;-0.40;99.90;;;-1.70;100.00;95416.47;5024602;28;1392;-72
2024/01/18 07:33:37;;;;;;;;;;;-0.40;99.90;;;-1.83;100.00;95410.09;5041994;28;1256;-71
2024/01/18 07:36:04;;;;;;;;;;;-0.50;99.90;;;-1.72;100.00;95419.97;5042365;28;1078;-72
2024/01/18 07:38:32;;;;;;;;;;;-0.50;99.90;;;-1.73;100.00;95431.03;5041765;28;1340;-72
2024/01/18 07:40:59;;;;;;;;;;;-0.50;99.90;;;-1.75;100.00;95432.78;5042923;28;1502;-72
2024/01/18 07:43:26;;;;;;;;;;;-0.50;99.90;;;-1.81;100.00;95441.38;5040719;28;1037;-71
2024/01/18 07:45:53;;;;;;;;;;;-0.60;99.90;;;-1.74;100.00;95445.41;5042141;28;1985;-71
2024/01/18 07:48:20;;;;;;;;;;;-0.50;99.90;;;-1.75;100.00;95465.84;5039587;28;1150;-72
2024/01/18 07:50:47;;;;;;;;;;;-0.40;99.90;;;-1.72;100.00;95450.47;5040063;28;952;-71
2024/01/18 07:53:14;;;;;;;;;;;-0.50;99.90;;;-1.64;100.00;95457.88;5039791;28;1169;-72
2024/01/18 07:55:42;;;;;;;;;;;-0.50;99.90;;;-1.75;100.00;95453.13;5038031;28;1300;-71
2024/01/18 07:58:10;;;;;;;;;;;-0.50;99.90;;;-1.73;100.00;95461.53;5036751;28;1090;-71
2024/01/18 08:00:37;;;;;;;;;;;-0.50;99.90;;;-1.79;100.00;95471.88;5042517;28;1270;-72
2024/01/18 08:03:04;;;;;;;;;;;-0.60;99.90;;;-1.79;100.00;95462.53;5041608;28;1120;-72
2024/01/18 08:05:31;;;;;;;;;;;-0.50;99.90;;;-1.80;100.00;95472.72;5025632;28;1906;-71
2024/01/18 08:07:58;;;;;;;;;;;-0.50;99.90;;;-1.82;100.00;95472.78;5037861;28;1073;-71
2024/01/18 08:10:25;;;;;;;;;;;-0.60;99.90;;;-1.77;100.00;95473.50;5026927;28;1082;-72
2024/01/18 08:12:53;;;;;;;;;;;-0.60;99.90;;;-1.81;100.00;95486.34;5041018;28;1117;-72
2024/01/18 08:15:21;;;;;;;;;;;-0.50;99.90;;;-1.74;100.00;95490.38;5013012;28;1363;-71
2024/01/18 08:17:49;;;;;;;;;;;-0.60;99.90;;;-1.80;100.00;95493.06;5019041;28;1006;-71
2024/01/18 08:20:16;;;;;;;;;;;-0.50;99.90;;;-1.77;100.00;95490.47;5039296;28;1090;-70
2024/01/18 08:22:43;;;;;;;;;;;-0.60;99.90;;;-1.81;100.00;95497.34;5037591;28;1054;-71
2024/01/18 08:25:10;;;;;;;;;;;-0.60;99.90;;;-1.75;100.00;95507.34;5023949;28;1331;-71
2024/01/18 08:27:41;;;;;;;;;;;-0.50;99.90;;;-1.76;100.00;95513.28;5038486;28;1967;-71
2024/01/18 08:30:09;;;;;;;;;;;-0.50;99.90;;;-1.84;100.00;95511.88;5037333;28;1141;-71
2024/01/18 08:32:37;;;;;;;;;;;-0.60;99.90;;;-1.82;100.00;95527.91;5023363;28;1129;-72
2024/01/18 08:35:07;;;;;;;;;;;-0.60;99.90;;;-1.81;100.00;95521.94;5038849;28;1232;-71
2024/01/18 08:37:35;;;;;;;;;;;-0.60;99.90;;;-1.78;100.00;95537.09;5039811;28;1181;-71
2024/01/18 08:40:04;;;;;;;;;;;-0.70;99.90;;;-1.84;100.00;95550.00;5023568;28;1103;-70
2024/01/18 08:42:31;;;;;;;;;;;-0.60;99.90;;;-1.83;100.00;95561.84;5021402;28;1065;-72
2024/01/18 08:44:58;;;;;;;;;;;-0.70;99.90;;;-1.85;100.00;95561.88;5036623;28;1347;-70
2024/01/18 08:47:26;;;;;;;;;;;-0.60;99.90;;;-1.76;100.00;95564.16;5040563;28;1894;-71
2024/01/18 08:49:53;;;;;;;;;;;-0.60;99.90;;;-1.80;100.00;95570.22;5039665;28;1077;-71
2024/01/18 08:52:21;;;;;;;;;;;-0.60;99.90;;;-1.66;100.00;95580.03;5054068;28;1139;-72
2024/01/18 08:54:51;;;;;;;;;;;-0.60;99.90;;;-1.77;100.00;95572.69;5023569;28;1280;-72
2024/01/18 08:57:18;;;;;;;;;;;-0.60;99.90;;;-1.77;100.00;95575.22;5054538;28;1380;-70
2024/01/18 08:59:46;;;;;;;;;;;-0.60;99.90;;;-1.79;100.00;95586.31;5041031;28;1342;-71
2024/01/18 09:02:14;;;;;;;;;;;-0.60;99.90;;;-1.84;100.00;95580.53;5037898;28;1113;-71
2024/01/18 09:04:50;;;;;;;;;;;-0.60;99.90;;;-1.90;100.00;95576.41;5023872;28;1366;-71
2024/01/18 09:07:17;;;;;;;;;;;-0.60;99.90;;;-1.84;100.00;95588.16;5028076;28;1914;-71
2024/01/18 09:09:45;;;;;;;;;;;-0.60;99.90;;;-1.85;100.00;95581.38;5039075;28;1292;-71
2024/01/18 09:12:13;;;;;;;;;;;-0.70;99.90;;;-1.86;100.00;95603.44;5036924;28;1342;-71
2024/01/18 09:14:40;;;;;;;;;;;-0.60;99.90;;;-1.93;100.00;95605.28;5039535;28;1260;-71
2024/01/18 09:17:07;;;;;;;;;;;-0.60;99.90;;;-1.96;100.00;95605.38;5038269;28;1202;-70
2024/01/18 09:19:38;;;;;;;;;;;-0.70;99.90;;;-1.96;100.00;95620.63;5038973;28;1399;-71
2024/01/18 09:22:05;;;;;;;;;;;-0.60;99.90;;;-1.91;100.00;95625.63;5005145;28;1431;-71
2024/01/18 09:24:32;;;;;;;;;;;-0.70;99.90;;;-1.92;100.00;95636.63;5037545;28;1322;-72
2024/01/18 09:26:59;;;;;;;;;;;-0.70;99.90;;;-1.93;100.00;95637.53;5038399;28;1910;-71
2024/01/18 09:29:26;;;;;;;;;;;-0.70;99.90;;;-1.95;100.00;95644.34;5037192;28;1105;-71
2024/01/18 09:31:53;;;;;;;;;;;-0.60;99.90;;;-1.89;100.00;95644.22;5019017;28;1113;-71
2024/01/18 09:34:20;;;;;;;;;;;-0.70;99.90;;;-1.85;100.00;95662.75;5037940;28;1268;-70
2024/01/18 09:36:47;;;;;;;;;;;-0.70;99.90;;;-1.83;100.00;95664.38;5039019;28;1340;-71
2024/01/18 09:39:16;;;;;;;;;;;-0.80;99.90;;;-1.82;100.00;95688.13;5039083;28;1303;-70
2024/01/18 09:41:49;;;;;;;;;;;-0.70;99.90;;;-1.90;100.00;95678.13;5036386;28;1335;-69
2024/01/18 09:44:24;;;;;;;;;;;-0.70;99.90;;;-1.79;100.00;95696.50;5053003;28;1320;-71
2024/01/18 09:46:52;;;;;;;;;;;-0.70;99.90;;;-1.76;100.00;95703.22;5037036;28;1906;-72
2024/01/18 09:49:20;;;;;;;;;;;-0.60;99.90;;;-1.77;100.00;95704.94;5054647;28;1345;-71
2024/01/18 09:51:47;;;;;;;;;;;-0.60;99.90;;;-1.81;100.00;95710.97;5021225;28;1291;-71
2024/01/18 09:54:14;;;;;;;;;;;-0.60;99.90;;;-1.73;100.00;95711.63;5021007;28;1241;-71
2024/01/18 09:56:43;;;;;;;;;;;-0.60;99.90;;;-1.71;100.00;95711.56;5041162;28;1325;-71
2024/01/18 09:59:15;;;;;;;;;;;-0.50;99.90;;;-1.70;100.00;95715.78;5039664;28;1373;-70
2024/01/18 10:01:42;;;;;;;;;;;-0.40;99.90;;;-1.66;100.00;95727.56;5041377;28;1499;-71
2024/01/18 10:04:13;;;;;;;;;;;-0.50;99.90;;;-1.51;100.00;95726.34;5023986;28;1343;-71
2024/01/18 10:06:43;;;;;;;;;;;-0.40;99.90;;;-1.47;100.00;95731.31;5041478;28;2001;-70
2024/01/18 10:09:14;;;;;;;;;;;-0.40;99.90;;;-1.42;100.00;95743.94;5042586;28;1351;-71
2024/01/18 10:11:44;;;;;;;;;;;-0.40;99.90;;;-1.47;100.00;95743.22;5040179;28;1321;-72
2024/01/18 10:14:11;;;;;;;;;;;-0.40;99.90;;;-1.54;100.00;95746.78;5042619;28;1376;-71
2024/01/18 10:16:40;;;;;;;;;;;-0.40;99.90;;;-1.49;100.00;95752.59;5040492;28;1341;-71
2024/01/18 10:19:18;;;;;;;;;;;-0.40;99.90;;;-1.49;100.00;95761.06;5031528;28;1298;-70
2024/01/18 10:21:46;;;;;;;;;;;-0.40;99.90;;;-1.33;100.00;95779.31;5026503;28;1600;-71
2024/01/18 10:24:15;;;;;;;;;;;-0.30;99.90;;;-1.26;100.00;95778.28;5039531;28;1670;-72
2024/01/18 10:26:42;;;;;;;;;;;-0.30;99.90;;;-1.20;100.00;95776.50;5042537;28;1987;-71
2024/01/18 10:29:09;;;;;;;;;;;-0.30;99.90;;;-1.21;100.00;95785.81;5025421;28;1227;-71
2024/01/18 10:31:41;;;;;;;;;;;-0.10;99.90;;;-1.23;100.00;95784.19;5023922;28;1164;-71
2024/01/18 10:34:08;;;;;;;;;;;-0.20;99.90;;;-1.14;100.00;95801.78;5053767;28;1245;-70
2024/01/18 10:36:37;;;;;;;;;;;-0.10;99.90;;;-1.32;100.00;95793.75;5041444;28;1142;-72
2024/01/18 10:39:17;;;;;;;;;;;-0.20;99.90;;;-1.38;100.00;95798.13;5030586;28;1228;-71
2024/01/18 10:41:45;;;;;;;;;;;-0.10;99.90;;;-1.46;100.00;95785.59;5023784;28;1153;-71
2024/01/18 10:44:14;;;;;;;;;;;-0.20;99.90;;;-1.41;100.00;95799.06;5042063;28;1267;-71
2024/01/18 10:46:42;;;;;;;;;;;-0.20;99.90;;;-1.39;100.00;95796.44;5026468;28;1894;-71
2024/01/18 10:49:10;;;;;;;;;;;-0.30;99.90;;;-1.26;100.00;95810.56;5042418;28;1528;-71
2024/01/18 10:51:38;;;;;;;;;;;-0.20;99.90;;;-1.38;100.00;95821.03;5041622;28;1343;-71
2024/01/18 10:54:07;;;;;;;;;;;-0.10;99.90;;;-1.37;100.00;95825.25;5024480;28;1638;-72
2024/01/18 10:56:47;;;;;;;;;;;-0.20;99.90;;;-1.23;100.00;95838.50;5053439;28;1426;-71
2024/01/18 10:59:14;;;;;;;;;;;-0.20;99.90;;;-1.11;100.00;95835.66;5041215;28;1273;-71
2024/01/18 11:01:41;;;;;;;;;;;-0.20;99.90;;;-1.17;100.00;95840.88;5055948;28;1397;-71
2024/01/18 11:04:08;;;;;;;;;;;-0.20;99.90;;;-1.12;100.00;95843.31;5024598;28;1365;-71
2024/01/18 11:06:35;;;;;;;;;;;-0.10;99.90;;;-1.19;100.00;95851.97;5025096;28;1918;-71
2024/01/18 11:09:03;;;;;;;;;;;-0.10;99.90;;;-1.14;100.00;95843.38;5021726;28;1494;-71
2024/01/18 11:11:31;;;;;;;;;;;-0.20;99.90;;;-1.06;100.00;95854.19;5022517;28;1286;-72
2024/01/18 11:13:57;;;;;;;;;;;-0.10;99.90;;;-1.21;100.00;95863.91;5054220;28;1297;-71
2024/01/18 11:16:25;;;;;;;;;;;-0.10;99.90;;;-1.19;100.00;95880.81;5039722;28;1271;-72
2024/01/18 11:18:57;;;;;;;;;;;-0.10;99.90;;;-1.17;100.00;95871.44;5040301;28;1098;-72
2024/01/18 11:21:40;;;;;;;;;;;0.00;99.90;;;-1.21;100.00;95869.00;5039826;28;1343;-72
2024/01/18 11:24:07;;;;;;;;;;;0.00;99.90;;;-1.29;100.00;95877.66;5039316;28;1450;-70
2024/01/18 11:26:34;;;;;;;;;;;-0.30;99.90;;;-1.20;100.00;95885.97;5040144;28;1906;-71